sensor_id;sensor_type;location;lat;lon;timestamp;pressure;altitude;pressure_sealevel;temperature;humidity
63582;BME280;49727;51.078;17.066;2023-02-10T00:05:11;101808.19;;;-2.23;57.39
63582;BME280;49727;51.078;17.066;2023-02-10T00:20:12;101813.06;;;-2.41;58.64
63582;BME280;49727;51.078;17.066;2023-02-10T00:35:12;101804.72;;;-2.82;58.63
63582;BME280;49727;51.078;17.066;2023-02-10T00:50:12;101817.94;;;-2.88;59.36
63582;BME280;49727;51.078;17.066;2023-02-10T01:05:13;101814.72;;;-2.66;59.30
63582;BME280;49727;51.078;17.066;2023-02-10T01:20:13;101808.72;;;-2.70;59.59
63582;BME280;49727;51.078;17.066;2023-02-10T01:35:14;101782.16;;;-2.83;59.75
63582;BME280;49727;51.078;17.066;2023-02-10T01:50:15;101770.72;;;-3.09;59.28
63582;BME280;49727;51.078;17.066;2023-02-10T02:05:32;101780.38;;;-3.12;59.86
63582;BME280;49727;51.078;17.066;2023-02-10T03:06:24;101777.38;;;-3.30;60.57
63582;BME280;49727;51.078;17.066;2023-02-10T03:21:24;101784.50;;;-3.36;61.04
63582;BME280;49727;51.078;17.066;2023-02-10T03:36:25;101802.69;;;-3.33;61.11
63582;BME280;49727;51.078;17.066;2023-02-10T03:51:26;101811.34;;;-3.33;60.85
63582;BME280;49727;51.078;17.066;2023-02-10T04:06:26;101818.50;;;-3.41;61.15
63582;BME280;49727;51.078;17.066;2023-02-10T04:21:27;101825.41;;;-3.38;61.19
63582;BME280;49727;51.078;17.066;2023-02-10T04:36:27;101827.78;;;-3.31;61.21
63582;BME280;49727;51.078;17.066;2023-02-10T04:51:27;101833.25;;;-3.40;62.12
63582;BME280;49727;51.078;17.066;2023-02-10T05:06:28;101829.81;;;-3.42;61.87
63582;BME280;49727;51.078;17.066;2023-02-10T05:21:28;101842.41;;;-3.58;62.38
63582;BME280;49727;51.078;17.066;2023-02-10T05:36:29;101841.75;;;-3.00;62.98
63582;BME280;49727;51.078;17.066;2023-02-10T05:51:29;101860.06;;;-2.41;61.68
63582;BME280;49727;51.078;17.066;2023-02-10T06:06:29;101874.53;;;-2.00;60.62
63582;BME280;49727;51.078;17.066;2023-02-10T06:21:30;101898.66;;;-1.65;59.67
63582;BME280;49727;51.078;17.066;2023-02-10T06:36:30;101909.84;;;-1.33;59.57
63582;BME280;49727;51.078;17.066;2023-02-10T06:51:30;101914.25;;;-1.09;59.08
63582;BME280;49727;51.078;17.066;2023-02-10T07:06:31;101920.00;;;-0.74;58.12
63582;BME280;49727;51.078;17.066;2023-02-10T07:21:31;101923.94;;;-0.62;57.56
63582;BME280;49727;51.078;17.066;2023-02-10T07:36:32;101935.91;;;-0.31;57.03
63582;BME280;49727;51.078;17.066;2023-02-10T07:51:32;101955.25;;;-0.11;56.80
63582;BME280;49727;51.078;17.066;2023-02-10T08:06:33;101944.72;;;0.14;56.50
63582;BME280;49727;51.078;17.066;2023-02-10T08:21:34;101937.63;;;0.60;56.62
63582;BME280;49727;51.078;17.066;2023-02-10T08:36:35;101943.63;;;0.84;56.64
63582;BME280;49727;51.078;17.066;2023-02-10T08:51:35;101950.00;;;1.20;57.57
63582;BME280;49727;51.078;17.066;2023-02-10T09:06:39;101955.38;;;1.38;58.01
63582;BME280;49727;51.078;17.066;2023-02-10T09:21:42;101958.91;;;1.76;58.72
63582;BME280;49727;51.078;17.066;2023-02-10T09:36:43;101963.63;;;2.81;58.90
63582;BME280;49727;51.078;17.066;2023-02-10T10:07:04;101990.06;;;8.09;49.10
63582;BME280;49727;51.078;17.066;2023-02-10T10:37:26;101981.25;;;5.68;53.51
63582;BME280;49727;51.078;17.066;2023-02-10T10:52:32;101970.19;;;4.71;53.63
63582;BME280;49727;51.078;17.066;2023-02-10T11:07:36;101955.00;;;4.13;54.81
63582;BME280;49727;51.078;17.066;2023-02-10T11:22:37;101943.88;;;4.07;55.16
63582;BME280;49727;51.078;17.066;2023-02-10T11:37:39;101944.63;;;4.42;56.21
63582;BME280;49727;51.078;17.066;2023-02-10T11:52:39;101948.44;;;4.52;55.22
63582;BME280;49727;51.078;17.066;2023-02-10T12:54:03;101957.81;;;4.26;56.41
63582;BME280;49727;51.078;17.066;2023-02-10T13:09:28;101961.22;;;4.44;56.79
63582;BME280;49727;51.078;17.066;2023-02-10T13:24:42;101940.28;;;4.40;57.18
63582;BME280;49727;51.078;17.066;2023-02-10T13:39:53;101943.66;;;4.89;57.23
63582;BME280;49727;51.078;17.066;2023-02-10T13:54:59;101958.44;;;5.22;55.92
63582;BME280;49727;51.078;17.066;2023-02-10T14:25:36;101974.03;;;5.27;55.77
63582;BME280;49727;51.078;17.066;2023-02-10T14:40:37;101968.06;;;5.08;56.23
63582;BME280;49727;51.078;17.066;2023-02-10T14:55:38;101976.75;;;4.64;56.11
63582;BME280;49727;51.078;17.066;2023-02-10T15:10:43;101977.16;;;4.10;56.98
63582;BME280;49727;51.078;17.066;2023-02-10T15:25:46;101978.00;;;3.61;57.08
63582;BME280;49727;51.078;17.066;2023-02-10T15:40:54;101964.56;;;3.15;58.27
63582;BME280;49727;51.078;17.066;2023-02-10T15:55:55;101977.50;;;2.84;59.63
63582;BME280;49727;51.078;17.066;2023-02-10T16:10:56;101991.78;;;2.61;59.50
63582;BME280;49727;51.078;17.066;2023-02-10T16:25:56;102011.31;;;2.38;60.27
63582;BME280;49727;51.078;17.066;2023-02-10T16:40:57;101994.66;;;2.18;60.77
63582;BME280;49727;51.078;17.066;2023-02-10T16:55:58;102000.41;;;2.08;60.85
63582;BME280;49727;51.078;17.066;2023-02-10T17:10:59;101995.97;;;2.10;61.59
63582;BME280;49727;51.078;17.066;2023-02-10T17:25:59;102001.28;;;2.08;61.83
63582;BME280;49727;51.078;17.066;2023-02-10T17:41:00;102010.16;;;2.06;61.91
63582;BME280;49727;51.078;17.066;2023-02-10T17:56:02;102022.41;;;2.07;62.31
63582;BME280;49727;51.078;17.066;2023-02-10T18:11:02;102014.34;;;2.10;62.16
63582;BME280;49727;51.078;17.066;2023-02-10T18:26:03;102031.25;;;1.85;62.31
63582;BME280;49727;51.078;17.066;2023-02-10T18:41:03;102039.41;;;1.38;62.16
63582;BME280;49727;51.078;17.066;2023-02-10T18:56:09;102031.53;;;1.17;62.46
63582;BME280;49727;51.078;17.066;2023-02-10T19:11:11;102039.31;;;1.18;62.33
63582;BME280;49727;51.078;17.066;2023-02-10T19:26:13;102013.53;;;1.08;62.49
63582;BME280;49727;51.078;17.066;2023-02-10T19:41:16;101989.38;;;0.99;62.55
63582;BME280;49727;51.078;17.066;2023-02-10T19:56:17;101990.00;;;0.84;63.06
63582;BME280;49727;51.078;17.066;2023-02-10T20:11:17;101969.81;;;0.64;63.80
63582;BME280;49727;51.078;17.066;2023-02-10T20:26:18;101967.69;;;0.52;64.17
63582;BME280;49727;51.078;17.066;2023-02-10T20:41:20;101942.53;;;0.25;64.89
63582;BME280;49727;51.078;17.066;2023-02-10T20:56:21;101932.66;;;0.10;65.68
63582;BME280;49727;51.078;17.066;2023-02-10T21:11:24;101898.03;;;0.02;66.17
63582;BME280;49727;51.078;17.066;2023-02-10T21:26:25;101880.75;;;-0.50;66.87
63582;BME280;49727;51.078;17.066;2023-02-10T21:41:27;101880.19;;;-0.82;67.58
63582;BME280;49727;51.078;17.066;2023-02-10T21:56:48;101863.53;;;-1.05;68.19
63582;BME280;49727;51.078;17.066;2023-02-10T22:11:49;101863.47;;;-1.28;68.44
63582;BME280;49727;51.078;17.066;2023-02-10T22:26:49;101851.50;;;-1.36;69.16
63582;BME280;49727;51.078;17.066;2023-02-10T22:41:50;101857.97;;;-1.46;69.80
63582;BME280;49727;51.078;17.066;2023-02-10T22:56:51;101837.34;;;-1.55;70.09
63582;BME280;49727;51.078;17.066;2023-02-10T23:11:52;101809.81;;;-1.65;70.43
63582;BME280;49727;51.078;17.066;2023-02-10T23:26:52;101800.00;;;-1.59;70.74
63582;BME280;49727;51.078;17.066;2023-02-10T23:41:53;101776.84;;;-1.19;71.57
63582;BME280;49727;51.078;17.066;2023-02-10T23:56:53;101739.72;;;-0.81;71.37
